Huvudsida
METAR-TAF:

METAR-TAF

Flygplatser :

Zeltweg, Österrike

latitud: 47-12N, longitud: 014-45E, höjd: 677 m

Aktuellt väderrapport

Denna rapport gjordes för 37 minuter sedan, klockan 13:20 UTC
Vind 4 kt från nordost
Temperatur 11°C
Fuktighet 32%
Tryck 1027 hPa

METAR: LOXZ 221320Z 04004KT 70KM FEW100AC BKN300CI 11/M05 Q1027 NOSIG

Tid: 14:57 (13:57 UTC)

Väderprognos

Denna rapport gjordes för 2 timmar och 42 minuter sedan, klockan 11:15 UTC
Prognos gäller från 22 kl. 12 UTC till 22 kl. 21 UTC
Vind 3 kt varierande vindriktning
Sikt 10 km eller mer
Brutna moln på en höjd av 28000 ft

TAF: LOXZ 221115Z 2212/2221 VRB03KT 9999 BKN280

Aktuella väderrapporter och prognoser från 4000 flygplatser (METAR- och TAF-rapporter).

De tillgängliga stationerna syns som gula och röda prickar på kartan.

För musen över prickarna för att se namnen på stationerna.

Klicka sedan för att få väderrapporter och prognoser.

För att ändra kartan: Klicka på de gröna knapparna med ett svart kors på för att zooma in; den gröna knappen med ett streck på för att zooma ut; eller på de gröna pilarna för angränsande kartor.


METAR-TAF: